Time;durP1;ratioP1;P1;durP2;ratioP2;P2;SDS_P1;SDS_P2;PMS_P1;PMS_P2;Temp;Humidity;BMP_temperature;BMP_pressure;BME280_temperature;BME280_humidity;BME280_pressure;Samples;Min_cycle;Max_cycle;Signal;HPM_P1;HPM_P2
2022/04/10 00:00:48;;;;;;;14.18;2.85;;;3.10;99.90;;;;;;4959740;28;20038;-78
2022/04/10 00:03:14;;;;;;;11.10;2.58;;;3.20;99.90;;;;;;4958535;28;20129;-78
2022/04/10 00:05:40;;;;;;;14.00;2.80;;;3.20;99.90;;;;;;4943787;28;20039;-78
2022/04/10 00:08:05;;;;;;;10.15;2.50;;;3.20;99.90;;;;;;4975450;28;20039;-78
2022/04/10 00:10:31;;;;;;;13.70;2.70;;;3.20;99.90;;;;;;4959647;28;20049;-78
2022/04/10 00:12:57;;;;;;;9.40;2.60;;;3.30;99.90;;;;;;4975204;28;20097;-78
2022/04/10 00:15:22;;;;;;;12.57;2.50;;;3.10;99.90;;;;;;4943584;28;20078;-78
2022/04/10 00:17:48;;;;;;;12.43;2.53;;;3.10;99.90;;;;;;4974774;28;20042;-78
2022/04/10 00:20:14;;;;;;;14.30;2.80;;;3.10;99.90;;;;;;4943589;28;20045;-78
2022/04/10 00:22:44;;;;;;;13.88;2.78;;;3.10;99.90;;;;;;4958971;28;20509;-78
2022/04/10 00:25:12;;;;;;;16.00;2.75;;;3.10;99.90;;;;;;4975427;28;20061;-78
2022/04/10 00:27:40;;;;;;;12.90;2.88;;;3.10;99.90;;;;;;4975157;28;20411;-78
2022/04/10 00:30:07;;;;;;;14.40;2.78;;;3.20;99.90;;;;;;4943659;28;20030;-78
2022/04/10 00:32:33;;;;;;;11.07;2.50;;;3.10;99.90;;;;;;4973129;28;20113;-78
2022/04/10 00:34:59;;;;;;;14.85;2.85;;;3.00;99.90;;;;;;4943192;28;20094;-78
2022/04/10 00:37:25;;;;;;;12.82;2.70;;;3.10;99.90;;;;;;4975227;28;20478;-78
2022/04/10 00:39:51;;;;;;;11.43;2.65;;;3.10;99.90;;;;;;4975378;28;20550;-78
2022/04/10 00:42:16;;;;;;;13.63;2.80;;;3.10;99.90;;;;;;4942760;28;20129;-78
2022/04/10 00:44:42;;;;;;;11.40;2.70;;;3.20;99.90;;;;;;4958937;28;20513;-78
2022/04/10 00:47:10;;;;;;;11.23;2.50;;;3.10;99.90;;;;;;4974705;28;20093;-78
2022/04/10 00:49:36;;;;;;;13.75;2.70;;;3.00;99.90;;;;;;4958535;28;20039;-78
2022/04/10 00:52:04;;;;;;;13.07;2.72;;;3.00;99.90;;;;;;4974576;28;20113;-78
2022/04/10 00:54:30;;;;;;;10.60;2.90;;;3.00;99.90;;;;;;4958587;28;20081;-78
2022/04/10 00:56:57;;;;;;;12.35;2.83;;;3.00;99.90;;;;;;4974691;28;20047;-78
2022/04/10 00:59:24;;;;;;;12.93;2.60;;;3.00;99.90;;;;;;4965146;28;20058;-78
2022/04/10 01:01:50;;;;;;;10.65;2.38;;;2.90;99.90;;;;;;4977882;28;20057;-78
2022/04/10 01:04:16;;;;;;;13.25;2.58;;;2.90;99.90;;;;;;4976839;28;20413;-78
2022/04/10 01:06:47;;;;;;;13.07;2.80;;;2.90;99.90;;;;;;4994044;28;20472;-78
2022/04/10 01:09:14;;;;;;;12.67;2.60;;;2.90;99.90;;;;;;4993896;28;20042;-78
2022/04/10 01:11:40;;;;;;;12.38;2.50;;;2.90;99.90;;;;;;4994030;28;20038;-78
2022/04/10 01:14:06;;;;;;;13.98;2.60;;;3.10;99.90;;;;;;4993676;28;20042;-78
2022/04/10 01:16:34;;;;;;;12.38;2.67;;;2.90;99.90;;;;;;4994195;28;20038;-78
2022/04/10 01:19:02;;;;;;;12.15;2.70;;;2.80;99.90;;;;;;4992995;28;20042;-78
2022/04/10 01:21:30;;;;;;;12.50;2.40;;;2.90;99.90;;;;;;4994100;28;20450;-78
2022/04/10 01:23:56;;;;;;;12.85;2.63;;;2.90;99.90;;;;;;4977516;28;20047;-78
2022/04/10 01:26:23;;;;;;;14.00;2.80;;;2.90;99.90;;;;;;4977438;28;20039;-78
2022/04/10 01:29:26;;;;;;;17.38;2.53;;;3.00;99.90;;;;;;4976630;28;20045;-78
2022/04/10 01:31:52;;;;;;;16.20;2.92;;;2.80;99.90;;;;;;4903132;29;20131;-78
2022/04/10 01:34:18;;;;;;;13.18;2.78;;;2.80;99.90;;;;;;4945989;28;20134;-78
2022/04/10 01:36:44;;;;;;;12.73;2.63;;;2.80;99.90;;;;;;4958341;28;20133;-78
2022/04/10 01:39:11;;;;;;;13.35;2.70;;;2.90;99.90;;;;;;4973814;28;20042;-78
2022/04/10 01:41:37;;;;;;;13.65;2.60;;;2.80;99.90;;;;;;4973947;28;20045;-78
2022/04/10 01:44:05;;;;;;;12.27;2.67;;;2.80;99.90;;;;;;4957240;28;20082;-78
2022/04/10 01:46:31;;;;;;;17.80;3.03;;;2.80;99.90;;;;;;4958284;28;20490;-78
2022/04/10 01:48:57;;;;;;;13.20;2.65;;;2.80;99.90;;;;;;4941062;28;20464;-78
2022/04/10 01:51:23;;;;;;;14.32;2.90;;;2.90;99.90;;;;;;4973775;28;20085;-78
2022/04/10 01:53:50;;;;;;;10.75;2.67;;;2.90;99.90;;;;;;4973251;28;20058;-78
2022/04/10 01:56:16;;;;;;;12.80;2.75;;;2.80;99.90;;;;;;4957913;28;20536;-78
2022/04/10 01:58:43;;;;;;;16.02;2.70;;;2.80;99.90;;;;;;4957266;28;20074;-78
2022/04/10 02:01:13;;;;;;;14.07;3.25;;;2.80;99.90;;;;;;4973634;28;20050;-78
2022/04/10 02:03:39;;;;;;;13.23;2.92;;;2.90;99.90;;;;;;4956308;28;20043;-78
2022/04/10 02:06:06;;;;;;;17.48;3.28;;;2.80;99.90;;;;;;4973591;28;20043;-78
2022/04/10 02:08:34;;;;;;;17.15;3.00;;;2.80;99.90;;;;;;4941249;28;20089;-78
2022/04/10 02:11:00;;;;;;;13.32;2.92;;;2.80;99.90;;;;;;4941890;28;20046;-78
2022/04/10 02:13:26;;;;;;;13.68;2.65;;;2.80;99.90;;;;;;4973196;28;20096;-78
2022/04/10 02:15:51;;;;;;;13.82;2.97;;;2.90;99.90;;;;;;4957361;28;20503;-78
2022/04/10 02:18:17;;;;;;;16.02;3.22;;;2.80;99.90;;;;;;4956249;28;20602;-78
2022/04/10 02:20:43;;;;;;;16.58;2.97;;;3.10;99.90;;;;;;4957294;28;20054;-78
2022/04/10 02:23:09;;;;;;;15.40;3.17;;;2.80;99.90;;;;;;4973128;28;20518;-78
2022/04/10 02:25:35;;;;;;;13.52;2.97;;;2.70;99.90;;;;;;4973567;28;20039;-78
2022/04/10 02:28:01;;;;;;;15.00;3.00;;;3.00;99.90;;;;;;4956790;28;20045;-78
2022/04/10 02:30:27;;;;;;;13.18;2.72;;;2.70;99.90;;;;;;4957148;28;20125;-78
2022/04/10 02:32:53;;;;;;;21.23;3.35;;;2.70;99.90;;;;;;4956295;28;20146;-78
2022/04/10 02:35:19;;;;;;;17.17;3.40;;;2.70;99.90;;;;;;4973190;28;20039;-78
2022/04/10 02:37:45;;;;;;;12.38;2.75;;;2.60;99.90;;;;;;4973137;28;20049;-78
2022/04/10 02:40:16;;;;;;;15.95;3.33;;;2.70;99.90;;;;;;4973398;28;20514;-78
2022/04/10 02:42:42;;;;;;;18.83;3.10;;;2.50;99.90;;;;;;4972757;28;20125;-78
2022/04/10 02:45:09;;;;;;;16.33;3.05;;;2.50;99.90;;;;;;4973380;28;20121;-78
2022/04/10 02:47:35;;;;;;;15.35;3.30;;;2.50;99.90;;;;;;4972124;28;20929;-78
2022/04/10 02:50:00;;;;;;;17.35;3.15;;;2.50;99.90;;;;;;4972981;28;20042;-78
2022/04/10 02:52:27;;;;;;;17.63;3.28;;;2.50;99.90;;;;;;4972585;28;20514;-78
2022/04/10 02:54:53;;;;;;;16.77;2.92;;;2.40;99.90;;;;;;4942157;28;20510;-78
2022/04/10 02:57:19;;;;;;;17.33;3.08;;;2.50;99.90;;;;;;4960705;28;20039;-78
2022/04/10 02:59:44;;;;;;;15.15;3.30;;;2.50;99.90;;;;;;4960781;28;20054;-78
2022/04/10 03:02:10;;;;;;;11.20;3.30;;;2.50;99.90;;;;;;4944294;28;20034;-78
2022/04/10 03:04:36;;;;;;;14.50;3.20;;;2.40;99.90;;;;;;4976309;28;20051;-78
2022/04/10 03:07:02;;;;;;;13.80;3.08;;;2.40;99.90;;;;;;4976646;28;20070;-78
2022/04/10 03:09:29;;;;;;;15.27;3.17;;;2.40;99.90;;;;;;4960963;28;20049;-78
2022/04/10 03:11:54;;;;;;;12.38;2.90;;;2.50;99.90;;;;;;4960668;28;20035;-78
2022/04/10 03:14:20;;;;;;;13.50;2.75;;;2.40;99.90;;;;;;4976473;28;20101;-78
2022/04/10 03:16:46;;;;;;;12.75;2.90;;;2.40;99.90;;;;;;4976897;28;20470;-78
2022/04/10 03:19:11;;;;;;;11.95;2.90;;;2.40;99.90;;;;;;4959790;28;20043;-78
2022/04/10 03:21:37;;;;;;;16.80;3.30;;;2.40;99.90;;;;;;4960765;28;20085;-78
2022/04/10 03:24:03;;;;;;;13.75;2.80;;;2.40;99.90;;;;;;4976148;28;20102;-78
2022/04/10 03:26:29;;;;;;;13.48;2.92;;;2.50;99.90;;;;;;4976471;28;20042;-78
2022/04/10 03:28:55;;;;;;;14.25;3.10;;;2.50;99.90;;;;;;4959889;28;20039;-78
2022/04/10 03:31:22;;;;;;;16.75;3.47;;;2.50;99.90;;;;;;4960250;28;20054;-78
2022/04/10 03:33:51;;;;;;;16.80;2.97;;;2.60;99.90;;;;;;4975569;28;20050;-78
2022/04/10 03:36:17;;;;;;;12.02;2.65;;;2.60;99.90;;;;;;4960703;28;20078;-78
2022/04/10 03:38:43;;;;;;;15.13;2.88;;;2.70;99.90;;;;;;4975945;28;20082;-78
2022/04/10 03:41:09;;;;;;;11.93;2.90;;;2.70;99.90;;;;;;4976207;28;20039;-78
2022/04/10 03:43:35;;;;;;;15.10;2.97;;;2.80;99.90;;;;;;4943801;28;20047;-78
2022/04/10 03:46:01;;;;;;;12.85;2.67;;;2.80;99.90;;;;;;4960012;28;20074;-78
2022/04/10 03:48:28;;;;;;;14.75;3.10;;;2.90;99.90;;;;;;4975039;28;20046;-78
2022/04/10 03:50:53;;;;;;;12.32;2.83;;;2.90;99.90;;;;;;4976204;28;20038;-78
2022/04/10 03:53:20;;;;;;;15.32;3.38;;;3.10;99.90;;;;;;4975665;28;20416;-78
2022/04/10 03:55:47;;;;;;;14.07;3.10;;;2.90;99.90;;;;;;4943909;28;20109;-78
2022/04/10 03:58:13;;;;;;;14.02;3.17;;;2.90;99.90;;;;;;4975821;28;20050;-78
2022/04/10 04:00:39;;;;;;;14.88;3.15;;;2.90;99.90;;;;;;4960010;28;20129;-78
2022/04/10 04:03:05;;;;;;;15.13;3.03;;;2.90;99.90;;;;;;4958620;28;20068;-78
2022/04/10 04:05:31;;;;;;;16.40;2.80;;;2.90;99.90;;;;;;4959633;28;20125;-78
2022/04/10 04:07:57;;;;;;;13.32;2.95;;;2.80;99.90;;;;;;4959584;28;20042;-78
2022/04/10 04:10:22;;;;;;;13.60;3.08;;;2.80;99.90;;;;;;4959672;28;20050;-78
2022/04/10 04:12:48;;;;;;;13.63;3.10;;;2.80;99.90;;;;;;4943580;28;20058;-78
2022/04/10 04:15:14;;;;;;;16.63;3.33;;;2.80;99.90;;;;;;4959777;28;20137;-78
2022/04/10 04:17:40;;;;;;;14.15;2.97;;;2.80;99.90;;;;;;4942781;28;20042;-78
2022/04/10 04:20:07;;;;;;;13.98;3.00;;;2.80;99.90;;;;;;4959669;28;20042;-78
2022/04/10 04:22:34;;;;;;;10.80;2.10;;;2.90;99.90;;;;;;4959123;28;20129;-78
2022/04/10 04:24:59;;;;;;;7.13;1.80;;;2.90;99.90;;;;;;4959318;28;20058;-78
2022/04/10 04:27:25;;;;;;;7.40;1.90;;;2.90;99.90;;;;;;4975385;28;20038;-78
2022/04/10 04:29:51;;;;;;;8.68;2.03;;;2.80;99.90;;;;;;4975330;28;20046;-78
2022/04/10 04:32:17;;;;;;;7.22;1.80;;;2.80;99.90;;;;;;4974654;28;20049;-78
2022/04/10 04:34:42;;;;;;;10.95;2.00;;;2.80;99.90;;;;;;4959281;28;20135;-78
2022/04/10 04:37:09;;;;;;;6.88;1.90;;;2.80;99.90;;;;;;4943081;28;20034;-78
2022/04/10 04:39:35;;;;;;;8.52;1.77;;;2.70;99.90;;;;;;4975440;28;20540;-78
2022/04/10 04:42:01;;;;;;;7.55;1.80;;;2.80;99.90;;;;;;4975202;28;20423;-78
2022/04/10 04:44:27;;;;;;;9.45;1.95;;;2.70;99.90;;;;;;4974885;28;20102;-78
2022/04/10 04:46:54;;;;;;;8.70;1.80;;;2.80;99.90;;;;;;4958850;28;20045;-78
2022/04/10 04:49:20;;;;;;;7.45;1.92;;;2.70;99.90;;;;;;4958107;28;20121;-78
2022/04/10 04:51:46;;;;;;;10.20;1.95;;;2.60;99.90;;;;;;4959165;28;20546;-78
2022/04/10 04:54:11;;;;;;;7.90;1.75;;;2.70;99.90;;;;;;4974614;28;20090;-78
2022/04/10 04:56:37;;;;;;;9.07;1.77;;;2.50;99.90;;;;;;4958854;28;20549;-78
2022/04/10 04:59:03;;;;;;;7.70;1.83;;;2.50;99.90;;;;;;4942528;28;20053;-78
2022/04/10 05:01:28;;;;;;;9.02;1.85;;;2.40;99.90;;;;;;4974843;28;20042;-78
2022/04/10 05:03:54;;;;;;;5.85;1.63;;;2.40;99.90;;;;;;4973410;28;20521;-78
2022/04/10 05:06:20;;;;;;;5.40;1.70;;;2.40;99.90;;;;;;4942684;28;20380;-78
2022/04/10 05:08:46;;;;;;;7.18;1.70;;;2.90;99.90;;;;;;4974693;28;20038;-78
2022/04/10 05:11:13;;;;;;;7.32;1.80;;;2.40;99.90;;;;;;4974561;28;20051;-78
2022/04/10 05:13:39;;;;;;;5.53;1.40;;;2.40;99.90;;;;;;4974297;28;20105;-78
2022/04/10 05:16:05;;;;;;;6.88;1.63;;;2.40;99.90;;;;;;4974458;28;20043;-78
2022/04/10 05:18:31;;;;;;;7.53;1.63;;;2.40;99.90;;;;;;4956700;28;20047;-78
2022/04/10 05:20:57;;;;;;;6.82;1.65;;;2.40;99.90;;;;;;4974426;28;20045;-78
2022/04/10 05:23:22;;;;;;;7.07;1.70;;;2.40;99.90;;;;;;4973954;28;20057;-78
2022/04/10 05:25:51;;;;;;;7.35;1.70;;;2.40;99.90;;;;;;4974342;28;20425;-78
2022/04/10 05:28:17;;;;;;;9.18;1.90;;;2.40;99.90;;;;;;4958230;28;20122;-78
2022/04/10 05:30:43;;;;;;;8.10;1.88;;;2.60;99.90;;;;;;4974489;28;20558;-78
2022/04/10 05:33:09;;;;;;;10.73;2.10;;;2.50;99.90;;;;;;4957246;28;20093;-78
2022/04/10 05:35:35;;;;;;;8.27;1.80;;;2.50;99.90;;;;;;4974356;28;20491;-78
2022/04/10 05:38:01;;;;;;;6.75;1.85;;;2.60;99.90;;;;;;4973817;28;20048;-78
2022/04/10 05:40:27;;;;;;;5.78;1.70;;;2.60;99.90;;;;;;4957937;28;20130;-78
2022/04/10 05:42:52;;;;;;;6.68;1.80;;;2.70;99.90;;;;;;4973837;28;20047;-78
2022/04/10 05:45:18;;;;;;;10.98;2.13;;;2.80;99.90;;;;;;4957891;28;20126;-78
2022/04/10 05:47:44;;;;;;;9.73;2.30;;;3.10;99.90;;;;;;4956839;28;20050;-78
2022/04/10 05:50:11;;;;;;;7.90;2.00;;;3.00;99.90;;;;;;4974124;28;20537;-78
2022/04/10 05:52:44;;;;;;;9.82;2.05;;;3.10;99.90;;;;;;4957296;28;20093;-78
2022/04/10 05:55:13;;;;;;;7.93;2.20;;;3.20;99.90;;;;;;4973980;28;20514;-78
2022/04/10 05:57:39;;;;;;;8.20;2.25;;;3.30;99.90;;;;;;4973742;28;20483;-78
2022/04/10 06:00:07;;;;;;;9.73;2.10;;;3.60;99.90;;;;;;4973658;28;20035;-78
2022/04/10 06:02:33;;;;;;;8.95;2.42;;;3.70;99.90;;;;;;4972501;28;20049;-78
2022/04/10 06:04:59;;;;;;;9.80;2.60;;;3.90;99.90;;;;;;4973521;28;20047;-78
2022/04/10 06:07:25;;;;;;;11.75;2.28;;;4.20;99.90;;;;;;4973322;28;20442;-78
2022/04/10 06:09:51;;;;;;;13.10;2.50;;;4.80;99.90;;;;;;4973567;28;20045;-78
2022/04/10 06:12:16;;;;;;;10.95;2.35;;;5.10;99.90;;;;;;4973280;28;20050;-78
2022/04/10 06:14:42;;;;;;;10.52;2.50;;;5.40;99.90;;;;;;4957444;28;20494;-78
2022/04/10 06:17:07;;;;;;;10.52;2.25;;;5.90;99.90;;;;;;4956760;28;20410;-78
2022/04/10 06:19:34;;;;;;;8.90;2.20;;;6.10;99.90;;;;;;4972970;28;20049;-78
2022/04/10 06:22:00;;;;;;;8.20;1.92;;;6.40;99.90;;;;;;4957089;28;20046;-78
2022/04/10 06:24:27;;;;;;;7.78;2.03;;;7.00;99.90;;;;;;4974986;28;20096;-79
2022/04/10 06:26:56;;;;;;;6.72;1.77;;;7.10;99.90;;;;;;4976729;28;20046;-79
2022/04/10 06:29:22;;;;;;;7.28;1.70;;;7.60;99.90;;;;;;4976023;28;20080;-79
2022/04/10 06:31:48;;;;;;;7.85;1.60;;;7.50;99.90;;;;;;4974753;28;20038;-79
2022/04/10 06:34:14;;;;;;;9.82;1.70;;;7.50;99.90;;;;;;4963647;28;20042;-78
2022/04/10 06:36:40;;;;;;;6.78;1.85;;;7.60;99.90;;;;;;4973179;28;20393;-78
2022/04/10 06:39:06;;;;;;;6.57;1.40;;;8.00;99.90;;;;;;4972506;28;20074;-78
2022/04/10 06:41:32;;;;;;;5.47;1.55;;;8.40;99.90;;;;;;4957231;28;20043;-78
2022/04/10 06:43:58;;;;;;;6.53;2.10;;;8.80;99.90;;;;;;4972770;28;20043;-78
2022/04/10 06:46:26;;;;;;;4.18;1.20;;;8.50;99.90;;;;;;4973138;28;20560;-79
2022/04/10 06:48:55;;;;;;;6.15;1.63;;;7.80;99.90;;;;;;4971985;28;20046;-78
2022/04/10 06:51:21;;;;;;;7.53;1.85;;;7.20;99.90;;;;;;4980249;28;20524;-78
2022/04/10 06:53:48;;;;;;;7.28;1.70;;;7.00;99.90;;;;;;4986725;28;20473;-78
2022/04/10 06:56:14;;;;;;;7.57;1.63;;;6.70;99.90;;;;;;4976581;28;20421;-78
2022/04/10 06:58:39;;;;;;;8.65;1.50;;;6.70;99.90;;;;;;4975921;28;20050;-78
2022/04/10 07:01:05;;;;;;;6.00;1.33;;;7.10;99.90;;;;;;4992577;28;20057;-78
2022/04/10 07:03:31;;;;;;;5.55;1.33;;;8.10;99.90;;;;;;4975065;28;20042;-78
2022/04/10 07:05:57;;;;;;;5.00;1.60;;;8.60;99.90;;;;;;4992584;28;20038;-78
2022/04/10 07:08:23;;;;;;;6.22;1.50;;;8.80;99.90;;;;;;4953522;28;20045;-78
2022/04/10 07:10:49;;;;;;;4.80;1.50;;;9.70;99.90;;;;;;4959102;28;20056;-78
2022/04/10 07:13:18;;;;;;;5.80;1.42;;;9.70;99.90;;;;;;4972019;28;20042;-78
2022/04/10 07:15:45;;;;;;;7.85;1.60;;;9.90;99.90;;;;;;4975564;28;20138;-78
2022/04/10 07:18:11;;;;;;;8.52;1.60;;;9.90;99.90;;;;;;4956137;28;20066;-78
2022/04/10 07:20:36;;;;;;;6.22;1.50;;;9.60;99.90;;;;;;4956073;28;20062;-78
2022/04/10 07:25:46;;;;;;;7.47;1.60;;;10.00;99.90;;;;;;4972494;28;20042;-77
2022/04/10 07:28:12;;;;;;;6.15;1.65;;;9.80;99.90;;;;;;4956589;28;20046;-77
2022/04/10 07:30:38;;;;;;;7.50;1.58;;;9.70;99.90;;;;;;4930989;28;20405;-77
2022/04/10 07:33:04;;;;;;;7.35;1.88;;;9.30;99.90;;;;;;4946635;28;20042;-77
2022/04/10 07:35:30;;;;;;;7.35;1.80;;;8.70;99.90;;;;;;4976097;28;20125;-77
2022/04/10 07:37:55;;;;;;;6.60;1.92;;;8.50;99.90;;;;;;4968943;28;20494;-77
2022/04/10 07:40:21;;;;;;;9.80;2.97;;;8.10;99.90;;;;;;4988580;28;20506;-77
2022/04/10 07:42:47;;;;;;;10.60;2.00;;;7.90;99.90;;;;;;4972455;28;20050;-77
2022/04/10 07:47:25;;;;;;;7.65;1.70;;;7.70;99.90;;;;;;4984157;28;20046;-77
2022/04/10 07:47:59;;;;;;;7.30;1.70;;;7.60;99.90;;;;;;4978646;28;20042;-77
2022/04/10 07:50:25;;;;;;;7.25;1.60;;;7.80;99.90;;;;;;4979198;28;20042;-77
2022/04/10 07:52:51;;;;;;;8.00;1.80;;;8.10;99.90;;;;;;4977963;28;20134;-77
2022/04/10 07:55:17;;;;;;;13.75;5.88;;;8.30;99.90;;;;;;4964877;28;20077;-77
2022/04/10 07:57:43;;;;;;;7.20;1.52;;;8.70;99.90;;;;;;4962488;28;20066;-77
2022/04/10 08:00:09;;;;;;;7.07;1.67;;;9.20;99.90;;;;;;4975197;28;20050;-77
2022/04/10 08:02:36;;;;;;;8.40;1.80;;;9.40;99.90;;;;;;4990228;28;20060;-77
2022/04/10 08:05:03;;;;;;;7.72;2.00;;;9.30;99.90;;;;;;4991645;28;20113;-77
2022/04/10 08:07:29;;;;;;;7.32;1.65;;;9.30;99.90;;;;;;4980773;28;20038;-77
2022/04/10 08:09:54;;;;;;;8.52;1.83;;;9.10;99.90;;;;;;4982145;28;20043;-78
2022/04/10 08:12:20;;;;;;;10.30;5.20;;;9.30;99.90;;;;;;4981518;28;20046;-78
2022/04/10 08:14:46;;;;;;;7.90;2.22;;;9.70;99.90;;;;;;4962393;28;20042;-78
2022/04/10 08:17:12;;;;;;;8.70;2.00;;;10.00;99.90;;;;;;4981342;28;20650;-78
2022/04/10 08:19:38;;;;;;;9.77;2.10;;;9.90;98.90;;;;;;4995516;28;20049;-78
2022/04/10 08:22:04;;;;;;;24.73;11.43;;;9.60;99.30;;;;;;4966695;28;20509;-78
2022/04/10 08:24:30;;;;;;;10.43;2.47;;;9.20;98.10;;;;;;4977328;28;20041;-78
2022/04/10 08:26:56;;;;;;;11.13;2.15;;;9.00;99.90;;;;;;4982169;28;20034;-78
2022/04/10 08:29:22;;;;;;;9.82;2.28;;;8.80;99.90;;;;;;4981914;28;20038;-77
2022/04/10 08:31:48;;;;;;;9.43;1.88;;;8.70;99.90;;;;;;4966086;28;20042;-77
2022/04/10 08:34:14;;;;;;;9.55;2.00;;;8.50;99.90;;;;;;4982223;28;20050;-77
2022/04/10 08:36:40;;;;;;;8.35;2.30;;;8.40;99.90;;;;;;4976428;28;20046;-77
2022/04/10 08:39:06;;;;;;;8.95;2.60;;;8.20;99.90;;;;;;4978412;28;20047;-77
2022/04/10 08:41:35;;;;;;;11.88;3.67;;;8.30;99.90;;;;;;4957465;28;20125;-77
2022/04/10 08:44:02;;;;;;;7.35;1.83;;;8.50;99.90;;;;;;4981586;28;20489;-77
2022/04/10 08:46:29;;;;;;;9.63;1.85;;;8.90;99.90;;;;;;4979147;28;20038;-77
2022/04/10 08:48:57;;;;;;;7.45;1.80;;;9.20;99.20;;;;;;4980741;28;20430;-79
2022/04/10 08:51:24;;;;;;;9.48;1.90;;;9.10;96.50;;;;;;4973979;28;20038;-79
2022/04/10 08:53:53;;;;;;;8.75;1.95;;;8.90;96.10;;;;;;4975774;28;20050;-77
2022/04/10 08:56:18;;;;;;;9.27;2.30;;;9.00;97.90;;;;;;4983084;28;20073;-80
2022/04/10 08:58:44;;;;;;;7.93;1.90;;;9.20;97.20;;;;;;4968535;28;20042;-77
2022/04/10 09:01:18;;;;;;;7.38;1.83;;;9.30;96.20;;;;;;4982994;28;20074;-77
2022/04/10 09:03:46;;;;;;;7.90;1.90;;;9.40;95.50;;;;;;4983622;28;20042;-77
2022/04/10 09:06:12;;;;;;;7.85;2.00;;;9.30;95.70;;;;;;4961225;28;20035;-77
2022/04/10 09:08:38;;;;;;;10.70;2.50;;;9.40;95.00;;;;;;4973221;28;20117;-77
2022/04/10 09:11:06;;;;;;;10.23;2.20;;;9.10;92.20;;;;;;4977004;28;20053;-77
2022/04/10 09:13:37;;;;;;;10.48;2.03;;;8.90;93.40;;;;;;4960551;28;20046;-77
2022/04/10 09:16:15;;;;;;;10.20;1.85;;;9.10;96.20;;;;;;4982198;28;20386;-79
2022/04/10 09:19:08;;;;;;;10.07;2.00;;;9.30;93.20;;;;;;4983578;28;20065;-78
2022/04/10 09:21:44;;;;;;;9.10;1.92;;;9.60;94.10;;;;;;4984363;28;20494;-77
2022/04/10 09:24:12;;;;;;;10.40;2.20;;;10.00;96.00;;;;;;4964970;28;20061;-77
2022/04/10 09:26:57;;;;;;;7.70;1.90;;;10.00;90.90;;;;;;4973631;28;20088;-77
2022/04/10 09:29:24;;;;;;;7.95;1.85;;;9.80;79.60;;;;;;4974289;28;20049;-77
2022/04/10 09:31:51;;;;;;;10.10;2.00;;;9.80;83.20;;;;;;4968648;28;20058;-77
2022/04/10 09:34:25;;;;;;;8.25;1.83;;;9.80;89.10;;;;;;4972451;28;20047;-77
2022/04/10 09:37:03;;;;;;;9.15;1.85;;;10.10;88.80;;;;;;4961434;28;20038;-77
2022/04/10 09:39:34;;;;;;;8.13;1.63;;;10.00;80.20;;;;;;4975597;28;20485;-77
2022/04/10 09:42:10;;;;;;;9.77;1.95;;;9.90;85.40;;;;;;4974061;28;20050;-77
2022/04/10 09:44:40;;;;;;;10.55;1.88;;;9.90;85.60;;;;;;4990589;28;20429;-77
2022/04/10 09:47:10;;;;;;;11.35;2.10;;;9.70;85.10;;;;;;4972356;28;20045;-77
2022/04/10 09:49:38;;;;;;;10.90;1.95;;;9.90;86.00;;;;;;4983273;28;20039;-77
2022/04/10 09:52:05;;;;;;;10.48;1.95;;;10.10;85.00;;;;;;4981121;28;20406;-79
2022/04/10 09:54:34;;;;;;;9.38;1.88;;;10.40;84.20;;;;;;4973272;28;20055;-78
2022/04/10 09:57:04;;;;;;;9.05;1.80;;;10.60;80.00;;;;;;4974484;28;20047;-78
2022/04/10 09:59:37;;;;;;;9.27;1.80;;;10.70;80.10;;;;;;4980922;28;20097;-77
2022/04/10 10:02:05;;;;;;;7.25;1.70;;;10.90;77.70;;;;;;4971800;28;20050;-77
2022/04/10 10:04:36;;;;;;;10.75;2.00;;;10.50;78.80;;;;;;4983138;28;20398;-79
2022/04/10 10:07:09;;;;;;;10.15;2.15;;;10.30;79.60;;;;;;4975361;28;20053;-79
2022/04/10 10:09:35;;;;;;;10.10;2.00;;;10.00;82.70;;;;;;4973477;28;20039;-79
2022/04/10 10:12:03;;;;;;;7.90;1.80;;;10.20;85.00;;;;;;4965592;28;20394;-79
2022/04/10 10:14:31;;;;;;;9.90;1.80;;;10.50;85.10;;;;;;4975037;28;20043;-79
2022/04/10 10:17:03;;;;;;;9.43;1.90;;;10.90;82.30;;;;;;4983319;28;20148;-80
2022/04/10 10:19:38;;;;;;;9.57;1.80;;;11.10;79.00;;;;;;4988288;28;20048;-80
2022/04/10 10:22:09;;;;;;;10.57;1.85;;;11.30;75.90;;;;;;4983613;28;20050;-79
2022/04/10 10:25:07;;;;;;;8.25;1.85;;;11.10;69.10;;;;;;4986790;28;20390;-78
2022/04/10 10:28:12;;;;;;;7.63;1.67;;;10.10;69.70;;;;;;4977140;28;20050;-79
2022/04/10 10:30:52;;;;;;;7.70;1.40;;;9.70;70.50;;;;;;4974023;28;20054;-78
2022/04/10 10:33:23;;;;;;;5.47;1.20;;;9.40;67.90;;;;;;4971870;28;20487;-78
2022/04/10 10:35:59;;;;;;;5.25;1.23;;;9.70;76.10;;;;;;4971319;28;20446;-78
2022/04/10 10:38:30;;;;;;;6.60;1.30;;;10.20;72.30;;;;;;4991589;28;20051;-78
2022/04/10 10:41:12;;;;;;;6.05;1.27;;;10.70;71.40;;;;;;4974853;28;20521;-78
2022/04/10 10:43:38;;;;;;;6.43;1.38;;;11.00;69.30;;;;;;4964976;28;20093;-77
2022/04/10 10:46:34;;;;;;;7.90;2.00;;;10.80;69.30;;;;;;4972803;28;20114;-77
2022/04/10 10:49:11;;;;;;;8.65;1.85;;;9.90;77.00;;;;;;4959715;28;20407;-76
2022/04/10 10:51:40;;;;;;;8.18;1.58;;;9.20;93.50;;;;;;4978028;28;20039;-76
2022/04/10 10:54:11;;;;;;;8.63;1.95;;;8.70;95.30;;;;;;4976074;28;20532;-76
2022/04/10 10:56:39;;;;;;;9.43;1.80;;;8.60;97.40;;;;;;4972973;28;20093;-76
2022/04/10 10:59:23;;;;;;;9.93;2.00;;;8.50;99.50;;;;;;4989066;28;20122;-76
2022/04/10 11:02:03;;;;;;;8.57;1.83;;;8.60;99.90;;;;;;4991184;28;20046;-76
2022/04/10 11:04:44;;;;;;;10.40;2.10;;;8.90;99.90;;;;;;4965674;28;20106;-77
2022/04/10 11:07:13;;;;;;;8.07;2.13;;;9.30;99.90;;;;;;4992227;28;20039;-77
2022/04/10 11:10:04;;;;;;;8.32;1.73;;;9.70;99.90;;;;;;4935957;28;20066;-77
2022/04/10 11:12:32;;;;;;;8.80;1.70;;;10.20;98.90;;;;;;4981460;28;20379;-77
2022/04/10 11:15:02;;;;;;;9.77;1.95;;;10.40;97.90;;;;;;4987722;28;20513;-77
2022/04/10 11:17:31;;;;;;;8.23;1.60;;;10.70;96.80;;;;;;4999085;28;20049;-77
2022/04/10 11:20:09;;;;;;;7.75;1.83;;;11.00;98.70;;;;;;4997357;28;20509;-77
2022/04/10 11:22:37;;;;;;;8.65;1.80;;;11.10;93.00;;;;;;4980669;28;20174;-77
2022/04/10 11:25:10;;;;;;;9.38;1.80;;;11.50;94.00;;;;;;4989339;28;20050;-77
2022/04/10 11:27:40;;;;;;;8.27;1.67;;;11.70;90.90;;;;;;4993770;28;20054;-77
2022/04/10 11:30:06;;;;;;;7.53;1.80;;;11.40;83.10;;;;;;4978221;28;20500;-77
2022/04/10 11:32:43;;;;;;;9.55;2.05;;;11.10;83.20;;;;;;4985664;28;20049;-77
2022/04/10 11:35:20;;;;;;;7.65;1.90;;;10.70;85.70;;;;;;4986694;28;20072;-77
2022/04/10 11:37:50;;;;;;;10.00;1.70;;;10.60;86.50;;;;;;5003950;28;20046;-77
2022/04/10 11:40:30;;;;;;;8.77;1.67;;;10.70;91.00;;;;;;4968349;28;20508;-77
2022/04/10 11:42:57;;;;;;;8.82;1.77;;;10.80;82.90;;;;;;4979684;28;20035;-77
2022/04/10 11:45:25;;;;;;;9.65;1.85;;;10.80;84.70;;;;;;4967686;28;20061;-77
2022/04/10 11:47:51;;;;;;;8.32;2.00;;;10.70;83.20;;;;;;4991364;28;20036;-77
2022/04/10 11:50:21;;;;;;;8.02;1.90;;;10.40;84.30;;;;;;4980998;28;20140;-77
2022/04/10 11:52:59;;;;;;;9.80;1.70;;;10.30;88.00;;;;;;4965258;28;20089;-77
2022/04/10 11:55:39;;;;;;;8.30;1.70;;;10.20;79.40;;;;;;4983592;28;20085;-77
2022/04/10 11:58:20;;;;;;;9.32;1.60;;;10.50;83.60;;;;;;5009099;28;20077;-77
2022/04/10 12:00:53;;;;;;;9.35;1.80;;;10.50;76.90;;;;;;4986559;28;20039;-77
2022/04/10 12:03:21;;;;;;;6.38;1.50;;;10.90;76.20;;;;;;4991612;28;20050;-77
2022/04/10 12:05:48;;;;;;;5.32;1.35;;;11.00;78.50;;;;;;4965568;28;20042;-77
2022/04/10 12:08:14;;;;;;;6.15;1.40;;;11.10;81.30;;;;;;4982726;28;20042;-77
2022/04/10 12:10:40;;;;;;;6.82;1.55;;;11.40;81.50;;;;;;4947295;28;20043;-77
2022/04/10 12:13:09;;;;;;;6.18;1.33;;;11.60;74.30;;;;;;4991307;28;20038;-77
2022/04/10 12:15:35;;;;;;;6.35;1.50;;;11.60;73.40;;;;;;4978086;28;20058;-77
2022/04/10 12:18:08;;;;;;;6.35;1.38;;;11.30;73.30;;;;;;4980453;28;20075;-77
2022/04/10 12:20:39;;;;;;;4.85;1.17;;;10.90;73.20;;;;;;4988603;28;20060;-77
2022/04/10 12:23:22;;;;;;;6.93;1.40;;;10.80;73.30;;;;;;4987670;28;20045;-77
2022/04/10 12:25:49;;;;;;;6.97;1.50;;;10.90;69.80;;;;;;4963046;28;20038;-77
2022/04/10 12:28:16;;;;;;;7.15;1.40;;;11.10;74.00;;;;;;4973376;28;20398;-77
2022/04/10 12:30:42;;;;;;;7.30;1.40;;;11.10;70.70;;;;;;4978540;28;20298;-78
2022/04/10 12:33:09;;;;;;;7.22;1.40;;;11.10;69.20;;;;;;4993398;28;20038;-78
2022/04/10 12:35:39;;;;;;;7.20;1.60;;;10.90;66.60;;;;;;4978425;28;20043;-78
2022/04/10 12:38:06;;;;;;;6.15;1.42;;;10.90;69.90;;;;;;4985182;28;20043;-78
2022/04/10 12:40:35;;;;;;;6.78;1.50;;;10.90;71.00;;;;;;4975238;28;20051;-77
2022/04/10 12:43:02;;;;;;;7.05;1.50;;;10.80;70.80;;;;;;4958956;28;20047;-77
2022/04/10 12:45:36;;;;;;;6.88;1.60;;;10.70;72.90;;;;;;4975193;28;20070;-77
2022/04/10 12:48:18;;;;;;;8.48;1.85;;;10.60;74.80;;;;;;4974140;28;20039;-77
2022/04/10 12:50:44;;;;;;;11.10;1.70;;;10.50;78.00;;;;;;4974016;28;20043;-77
2022/04/10 12:53:13;;;;;;;6.85;1.80;;;10.70;81.20;;;;;;4942108;28;20070;-77
2022/04/10 12:55:39;;;;;;;8.10;1.60;;;10.90;79.50;;;;;;4974865;28;20498;-77
2022/04/10 12:58:07;;;;;;;6.97;1.60;;;10.90;74.00;;;;;;4974931;28;20049;-77